createdAt,value
2022-08-17T00:02:26.216Z,26.05
2022-08-17T00:04:55.272Z,25.95
2022-08-17T00:07:22.723Z,25.96
2022-08-17T00:09:49.242Z,26.00
2022-08-17T00:12:42.744Z,25.99
2022-08-17T00:15:02.448Z,26.00
2022-08-17T00:17:29.083Z,26.05
2022-08-17T00:19:55.585Z,26.06
2022-08-17T00:22:31.974Z,26.06
2022-08-17T00:25:07.061Z,26.09
2022-08-17T00:27:33.659Z,26.13
2022-08-17T00:30:00.389Z,26.15
2022-08-17T00:33:14.352Z,26.21
2022-08-17T00:35:18.266Z,26.26
2022-08-17T00:37:44.853Z,26.28
2022-08-17T00:40:14.668Z,26.25
2022-08-17T00:42:42.739Z,26.23
2022-08-17T00:45:17.583Z,26.15
2022-08-17T00:47:44.653Z,26.11
2022-08-17T00:50:14.092Z,26.09
2022-08-17T00:52:52.616Z,26.04
2022-08-17T00:55:19.981Z,26.04
2022-08-17T00:57:53.461Z,26.03
2022-08-17T01:00:32.347Z,26.06
2022-08-17T01:03:26.000Z,26.01
2022-08-17T01:05:56.718Z,25.93
2022-08-17T01:08:27.331Z,25.85
2022-08-17T01:10:59.779Z,25.78
2022-08-17T01:13:41.202Z,25.76
2022-08-17T01:16:20.329Z,25.78
2022-08-17T01:18:50.553Z,25.81
2022-08-17T01:21:42.071Z,25.81
2022-08-17T01:24:08.938Z,25.76
2022-08-17T01:26:37.958Z,25.62
2022-08-17T01:29:06.048Z,25.50
2022-08-17T01:31:38.743Z,25.42
2022-08-17T01:34:10.615Z,25.41
2022-08-17T01:36:39.788Z,25.42
2022-08-17T01:39:11.654Z,25.44
2022-08-17T01:41:40.940Z,25.41
2022-08-17T01:44:08.809Z,25.31
2022-08-17T01:46:37.106Z,25.21
2022-08-17T01:49:09.176Z,25.08
2022-08-17T01:51:35.781Z,25.00
2022-08-17T01:54:05.572Z,24.95
2022-08-17T01:56:35.023Z,24.90
2022-08-17T01:59:01.570Z,24.87
2022-08-17T02:01:30.598Z,24.81
2022-08-17T02:04:00.754Z,24.81
2022-08-17T02:06:52.675Z,24.83
2022-08-17T02:09:25.867Z,24.88
2022-08-17T02:11:56.887Z,24.82
2022-08-17T02:14:23.689Z,24.83
2022-08-17T02:16:50.410Z,24.79
2022-08-17T02:19:17.143Z,24.78
2022-08-17T02:21:47.988Z,24.77
2022-08-17T02:24:58.685Z,24.75
2022-08-17T02:27:06.830Z,24.73
2022-08-17T02:29:33.398Z,24.72
2022-08-17T02:32:00.156Z,24.68
2022-08-17T02:34:27.447Z,24.62
2022-08-17T02:36:54.044Z,24.65
2022-08-17T02:39:20.575Z,24.56
2022-08-17T02:41:47.344Z,24.63
2022-08-17T02:44:13.900Z,24.58
2022-08-17T02:47:00.811Z,24.50
2022-08-17T02:49:27.459Z,24.54
2022-08-17T02:51:53.951Z,24.48
2022-08-17T02:54:39.953Z,24.52
2022-08-17T02:57:10.017Z,24.52
2022-08-17T02:59:37.749Z,24.57
2022-08-17T03:02:06.204Z,24.64
2022-08-17T03:04:35.135Z,24.63
2022-08-17T03:07:02.601Z,24.66
2022-08-17T03:09:29.118Z,24.67
2022-08-17T03:11:56.130Z,24.63
2022-08-17T03:14:26.160Z,24.68
2022-08-17T03:16:52.990Z,24.62
2022-08-17T03:19:19.636Z,24.58
2022-08-17T03:21:46.192Z,24.51
2022-08-17T03:24:21.554Z,24.47
2022-08-17T03:26:55.121Z,24.50
2022-08-17T03:29:21.766Z,24.52
2022-08-17T03:31:49.673Z,24.52
2022-08-17T03:34:17.391Z,24.45
2022-08-17T03:36:44.368Z,24.36
2022-08-17T03:39:11.033Z,24.34
2022-08-17T03:41:38.829Z,24.19
2022-08-17T03:44:05.410Z,24.19
2022-08-17T03:46:50.677Z,24.23
2022-08-17T03:49:35.816Z,24.22
2022-08-17T03:52:20.795Z,24.04
2022-08-17T03:55:06.159Z,24.03
2022-08-17T03:57:32.701Z,23.91
2022-08-17T03:59:59.773Z,23.99
2022-08-17T04:02:33.687Z,23.96
2022-08-17T04:05:01.202Z,24.02
2022-08-17T04:07:30.237Z,24.01
2022-08-17T04:09:58.054Z,24.04
2022-08-17T04:12:26.373Z,23.93
2022-08-17T04:14:55.038Z,23.85
2022-08-17T04:17:29.108Z,23.99
2022-08-17T04:19:56.327Z,23.95
2022-08-17T04:22:32.868Z,24.00
2022-08-17T04:25:18.961Z,23.93
2022-08-17T04:27:45.500Z,23.89
2022-08-17T04:30:13.009Z,23.77
2022-08-17T04:33:07.391Z,23.83
2022-08-17T04:35:41.141Z,23.84
2022-08-17T04:38:10.224Z,23.85
2022-08-17T04:40:55.432Z,23.90
2022-08-17T04:43:24.871Z,23.88
2022-08-17T04:45:57.384Z,23.89
2022-08-17T04:48:29.737Z,23.97
2022-08-17T04:51:04.142Z,23.92
2022-08-17T04:53:30.767Z,23.93
2022-08-17T04:55:58.987Z,23.95
2022-08-17T04:58:25.571Z,23.92
2022-08-17T05:00:52.683Z,23.87
2022-08-17T05:03:19.467Z,23.83
2022-08-17T05:05:49.519Z,23.85
2022-08-17T05:08:19.095Z,23.91
2022-08-17T05:10:47.389Z,23.89
2022-08-17T05:13:19.675Z,24.01
2022-08-17T05:15:48.291Z,23.97
2022-08-17T05:18:16.611Z,24.01
2022-08-17T05:20:43.538Z,23.96
2022-08-17T05:23:12.767Z,23.92
2022-08-17T05:25:42.433Z,23.91
2022-08-17T05:28:14.845Z,23.98
2022-08-17T05:30:43.339Z,24.05
2022-08-17T05:33:20.766Z,24.09
2022-08-17T05:35:51.613Z,23.99
2022-08-17T05:38:20.259Z,24.00
2022-08-17T05:40:47.303Z,23.98
2022-08-17T05:43:23.265Z,23.93
2022-08-17T05:45:57.618Z,24.03
2022-08-17T05:48:35.530Z,23.63
2022-08-17T05:51:28.660Z,23.20
2022-08-17T05:54:14.564Z,23.05
2022-08-17T05:56:43.955Z,22.90
2022-08-17T05:59:29.311Z,23.06
2022-08-17T06:01:58.795Z,23.17
2022-08-17T06:04:35.972Z,22.88
2022-08-17T06:07:16.641Z,22.93
2022-08-17T06:09:43.159Z,23.17
2022-08-17T06:12:39.455Z,23.29
2022-08-17T06:15:12.741Z,23.44
2022-08-17T06:17:39.978Z,23.34
2022-08-17T06:20:14.236Z,23.32
2022-08-17T06:22:50.828Z,23.27
2022-08-17T06:25:23.444Z,23.32
2022-08-17T06:27:56.348Z,23.49
2022-08-17T06:30:27.489Z,23.55
2022-08-17T06:33:02.739Z,23.61
2022-08-17T06:35:34.654Z,23.81
2022-08-17T06:38:49.857Z,23.64
2022-08-17T06:41:28.531Z,23.63
2022-08-17T06:44:43.168Z,23.58
2022-08-17T06:47:08.942Z,23.55
2022-08-17T06:49:55.221Z,23.63
2022-08-17T06:52:47.241Z,23.62
2022-08-17T06:55:21.234Z,23.62
2022-08-17T06:57:53.532Z,23.62
2022-08-17T07:00:23.868Z,23.63
2022-08-17T07:02:58.216Z,23.76
2022-08-17T07:05:37.672Z,23.69
2022-08-17T07:08:38.424Z,23.69
2022-08-17T07:11:38.309Z,23.68
2022-08-17T07:14:37.965Z,23.77
2022-08-17T07:17:13.879Z,23.69
2022-08-17T07:19:45.336Z,23.64
2022-08-17T07:22:14.841Z,23.72
2022-08-17T07:24:51.422Z,23.77
2022-08-17T07:27:22.482Z,23.82
2022-08-17T07:29:53.645Z,23.86
2022-08-17T07:32:29.144Z,24.01
2022-08-17T07:35:40.747Z,24.05
2022-08-17T07:38:26.130Z,24.08
2022-08-17T07:41:03.101Z,24.09
2022-08-17T07:43:41.951Z,24.05
2022-08-17T07:46:30.301Z,24.14
2022-08-17T07:49:08.674Z,24.25
2022-08-17T07:51:44.241Z,24.25
2022-08-17T07:54:23.049Z,24.27
2022-08-17T07:56:52.403Z,24.25
2022-08-17T07:59:33.816Z,24.23
2022-08-17T08:02:05.321Z,24.30
2022-08-17T08:07:37.336Z,24.16
2022-08-17T08:10:13.864Z,24.16
2022-08-17T08:12:44.024Z,24.16
2022-08-17T08:15:21.820Z,24.11
2022-08-17T08:17:55.369Z,24.07
2022-08-17T08:20:53.494Z,24.18
2022-08-17T08:23:59.229Z,24.20
2022-08-17T08:26:40.579Z,24.32
2022-08-17T08:29:18.176Z,24.24
2022-08-17T08:31:57.169Z,24.28
2022-08-17T08:35:02.777Z,24.25
2022-08-17T08:37:49.885Z,24.26
2022-08-17T08:40:31.912Z,24.25
2022-08-17T08:43:30.494Z,24.28
2022-08-17T08:46:21.375Z,24.32
2022-08-17T08:49:39.061Z,24.35
2022-08-17T08:52:31.083Z,24.32
2022-08-17T08:55:10.586Z,24.24
2022-08-17T08:57:43.986Z,24.21
2022-08-17T09:00:16.140Z,24.18
2022-08-17T09:02:45.754Z,24.20
2022-08-17T09:05:57.070Z,24.23
2022-08-17T09:08:47.779Z,24.19
2022-08-17T09:12:02.412Z,24.21
2022-08-17T09:14:45.171Z,24.26
2022-08-17T09:17:29.794Z,24.29
2022-08-17T09:20:27.196Z,24.26
2022-08-17T09:23:03.359Z,24.37
2022-08-17T09:25:34.889Z,24.35
2022-08-17T09:28:06.500Z,24.38
2022-08-17T09:30:43.554Z,24.32
2022-08-17T09:33:12.832Z,24.26
2022-08-17T09:35:46.822Z,24.17
2022-08-17T09:38:35.494Z,24.16
2022-08-17T09:41:02.080Z,24.18
2022-08-17T09:43:38.875Z,24.17
2022-08-17T09:46:17.070Z,24.16
2022-08-17T09:48:50.782Z,24.12
2022-08-17T09:51:22.292Z,24.11
2022-08-17T09:53:50.113Z,24.08
2022-08-17T09:56:28.863Z,24.01
2022-08-17T09:59:20.077Z,23.94
2022-08-17T10:02:06.221Z,23.82
2022-08-17T10:04:39.752Z,23.80
2022-08-17T10:07:25.134Z,23.76
2022-08-17T10:10:02.860Z,23.75
2022-08-17T10:12:47.874Z,23.82
2022-08-17T10:15:22.518Z,23.78
2022-08-17T10:17:56.356Z,23.68
2022-08-17T10:20:42.880Z,23.70
2022-08-17T10:23:45.124Z,23.62
2022-08-17T10:26:18.753Z,23.45
2022-08-17T10:28:48.027Z,23.49
2022-08-17T10:31:40.503Z,23.49
2022-08-17T10:34:41.485Z,23.46
2022-08-17T10:37:28.237Z,23.45
2022-08-17T10:40:24.522Z,23.55
2022-08-17T10:42:56.046Z,23.54
2022-08-17T10:45:26.370Z,23.40
2022-08-17T10:48:05.876Z,23.23
2022-08-17T10:50:48.001Z,23.04
2022-08-17T10:53:32.905Z,22.91
2022-08-17T10:56:14.493Z,22.94
2022-08-17T10:58:47.062Z,22.96
2022-08-17T11:01:13.750Z,22.94
2022-08-17T11:03:55.812Z,23.02
2022-08-17T11:06:25.656Z,23.03
2022-08-17T11:09:00.916Z,23.04
2022-08-17T11:11:47.279Z,22.94
2022-08-17T11:14:36.075Z,22.98
2022-08-17T11:17:21.977Z,23.01
2022-08-17T11:20:13.266Z,23.03
2022-08-17T11:22:59.020Z,23.23
2022-08-17T11:25:38.539Z,23.31
2022-08-17T11:28:06.956Z,23.35
2022-08-17T11:30:50.968Z,23.50
2022-08-17T11:34:13.767Z,23.71
2022-08-17T11:36:46.569Z,23.90
2022-08-17T11:39:36.988Z,24.07
2022-08-17T11:42:09.826Z,24.21
2022-08-17T11:44:51.173Z,24.19
2022-08-17T11:48:26.562Z,24.23
2022-08-17T11:51:35.629Z,24.54
2022-08-17T11:54:34.058Z,24.67
2022-08-17T11:57:27.377Z,24.71
2022-08-17T11:59:55.430Z,24.85
2022-08-17T12:02:32.622Z,24.90
2022-08-17T12:05:14.377Z,24.82
2022-08-17T12:07:53.203Z,24.90
2022-08-17T12:10:31.665Z,25.03
2022-08-17T12:13:14.120Z,24.98
2022-08-17T12:15:50.158Z,25.02
2022-08-17T12:18:24.605Z,24.95
2022-08-17T12:21:28.511Z,24.90
2022-08-17T12:23:59.956Z,24.84
2022-08-17T12:26:31.553Z,24.90
2022-08-17T12:29:09.348Z,24.94
2022-08-17T12:31:47.649Z,24.86
2022-08-17T12:34:27.245Z,24.86
2022-08-17T12:37:01.310Z,24.90
2022-08-17T12:39:30.038Z,24.93
2022-08-17T12:42:03.948Z,25.03
2022-08-17T12:44:36.269Z,25.17
2022-08-17T12:47:22.827Z,25.15
2022-08-17T12:50:08.167Z,25.05
2022-08-17T12:52:59.740Z,25.00
2022-08-17T12:55:32.711Z,24.90
2022-08-17T12:58:01.809Z,24.83
2022-08-17T13:00:37.918Z,24.96
2022-08-17T13:03:09.526Z,24.93
2022-08-17T13:05:42.000Z,24.75
2022-08-17T13:08:17.980Z,24.86
2022-08-17T13:10:54.891Z,24.97
2022-08-17T13:13:26.710Z,25.02
2022-08-17T13:16:01.781Z,24.91
2022-08-17T13:18:45.411Z,24.90
2022-08-17T13:21:23.877Z,25.10
2022-08-17T13:24:13.662Z,25.07
2022-08-17T13:26:45.374Z,24.92
2022-08-17T13:29:25.980Z,24.88
2022-08-17T13:32:13.503Z,24.82
2022-08-17T13:35:13.217Z,24.84
2022-08-17T13:37:35.159Z,24.64
2022-08-17T13:40:07.742Z,24.62
2022-08-17T13:42:52.262Z,24.63
2022-08-17T13:45:35.193Z,24.72
2022-08-17T13:48:11.121Z,24.68
2022-08-17T13:53:26.088Z,24.66
2022-08-17T13:56:00.778Z,24.71
2022-08-17T13:58:51.257Z,24.59
2022-08-17T14:01:39.421Z,24.50
2022-08-17T14:04:15.243Z,24.50
2022-08-17T14:06:55.423Z,24.54
2022-08-17T14:09:26.158Z,24.49
2022-08-17T14:11:55.398Z,24.60
2022-08-17T14:14:23.172Z,24.63
2022-08-17T14:16:51.760Z,24.62
2022-08-17T14:19:19.390Z,24.52
2022-08-17T14:21:46.704Z,24.53
2022-08-17T14:24:22.949Z,24.63
2022-08-17T14:26:52.277Z,24.62
2022-08-17T14:29:20.516Z,24.68
2022-08-17T14:31:48.526Z,24.66
2022-08-17T14:34:20.460Z,24.82
2022-08-17T14:36:48.419Z,24.92
2022-08-17T14:39:16.424Z,25.03
2022-08-17T14:41:43.536Z,24.94
2022-08-17T14:44:13.430Z,24.97
2022-08-17T14:46:44.418Z,24.97
2022-08-17T14:49:13.336Z,25.01
2022-08-17T14:51:43.680Z,24.96
2022-08-17T14:54:11.895Z,25.01
2022-08-17T14:57:04.679Z,24.94
2022-08-17T14:59:45.581Z,25.07
2022-08-17T15:02:13.104Z,25.16
2022-08-17T15:04:44.936Z,25.04
2022-08-17T15:07:12.235Z,25.01
2022-08-17T15:09:39.004Z,25.01
2022-08-17T15:12:08.930Z,24.93
2022-08-17T15:14:35.891Z,25.01
2022-08-17T15:17:03.548Z,24.96
2022-08-17T15:19:30.200Z,25.01
2022-08-17T15:21:56.810Z,25.03
2022-08-17T15:24:23.379Z,25.01
2022-08-17T15:26:50.143Z,25.11
2022-08-17T15:29:16.954Z,25.23
2022-08-17T15:31:43.702Z,25.31
2022-08-17T15:34:10.283Z,25.30
2022-08-17T15:36:37.040Z,25.29
2022-08-17T15:39:05.420Z,25.31
2022-08-17T15:41:32.202Z,25.29
2022-08-17T15:43:58.880Z,25.26
2022-08-17T15:46:26.800Z,25.33
2022-08-17T15:48:58.086Z,25.33
2022-08-17T15:51:30.291Z,25.32
2022-08-17T15:54:04.528Z,25.45
2022-08-17T15:56:46.157Z,25.29
2022-08-17T15:59:12.766Z,25.31
2022-08-17T16:03:13.819Z,25.41
2022-08-17T16:04:29.662Z,25.54
2022-08-17T16:06:58.052Z,25.45
2022-08-17T16:09:24.673Z,25.45
2022-08-17T16:11:53.850Z,25.48
2022-08-17T16:14:22.325Z,25.52
2022-08-17T16:16:49.721Z,25.59
2022-08-17T16:19:16.254Z,25.57
2022-08-17T16:21:43.393Z,25.46
2022-08-17T16:24:13.307Z,25.29
2022-08-17T16:26:41.960Z,25.34
2022-08-17T16:29:08.910Z,25.35
2022-08-17T16:31:37.479Z,25.33
2022-08-17T16:34:16.953Z,25.37
2022-08-17T16:36:53.689Z,25.31
2022-08-17T16:39:26.733Z,25.29
2022-08-17T16:41:53.521Z,25.34
2022-08-17T16:44:21.645Z,25.41
2022-08-17T16:46:48.703Z,25.51
2022-08-17T16:49:35.116Z,25.56
2022-08-17T16:52:06.267Z,25.55
2022-08-17T16:54:33.392Z,25.57
2022-08-17T16:57:00.158Z,25.77
2022-08-17T16:59:31.020Z,25.66
2022-08-17T17:02:12.874Z,25.62
2022-08-17T17:04:54.272Z,25.60
2022-08-17T17:07:25.659Z,25.69
2022-08-17T17:09:55.361Z,25.77
2022-08-17T17:13:00.837Z,25.72
2022-08-17T17:15:10.583Z,25.68
2022-08-17T17:17:38.652Z,25.57
2022-08-17T17:20:21.077Z,25.41
2022-08-17T17:22:49.587Z,25.36
2022-08-17T17:25:16.199Z,25.33
2022-08-17T17:28:01.882Z,25.35
2022-08-17T17:30:38.121Z,25.25
2022-08-17T17:33:14.510Z,25.30
2022-08-17T17:35:46.115Z,25.31
2022-08-17T17:38:21.358Z,25.33
2022-08-17T17:40:53.797Z,25.36
2022-08-17T17:43:44.595Z,25.35
2022-08-17T17:46:39.709Z,25.39
2022-08-17T17:49:06.536Z,25.46
2022-08-17T17:52:06.566Z,25.41
2022-08-17T17:54:56.175Z,25.29
2022-08-17T17:57:47.726Z,25.31
2022-08-17T18:00:23.442Z,25.28
2022-08-17T18:03:26.608Z,25.32
2022-08-17T18:06:24.408Z,25.30
2022-08-17T18:09:09.061Z,25.37
2022-08-17T18:11:42.754Z,25.36
2022-08-17T18:14:47.085Z,25.26
2022-08-17T18:17:14.487Z,25.29
2022-08-17T18:19:41.503Z,25.26
2022-08-17T18:22:15.259Z,25.25
2022-08-17T18:24:45.510Z,25.31
2022-08-17T18:27:25.758Z,25.18
2022-08-17T18:29:55.548Z,25.22
2022-08-17T18:32:31.095Z,25.14
2022-08-17T18:35:10.014Z,25.05
2022-08-17T18:37:38.930Z,24.91
2022-08-17T18:40:31.148Z,24.88
2022-08-17T18:43:00.781Z,24.91
2022-08-17T18:45:33.453Z,24.99
2022-08-17T18:48:00.453Z,24.97
2022-08-17T18:50:34.798Z,24.96
2022-08-17T18:53:20.789Z,24.92
2022-08-17T18:56:31.213Z,24.79
2022-08-17T18:58:57.770Z,24.75
2022-08-17T19:01:41.704Z,24.83
2022-08-17T19:04:27.944Z,24.82
2022-08-17T19:07:05.363Z,24.85
2022-08-17T19:09:35.900Z,24.80
2022-08-17T19:12:06.093Z,24.70
2022-08-17T19:14:33.022Z,24.59
2022-08-17T19:17:09.165Z,24.63
2022-08-17T19:20:09.301Z,24.59
2022-08-17T19:22:56.435Z,24.62
2022-08-17T19:25:29.203Z,24.53
2022-08-17T19:28:06.329Z,24.51
2022-08-17T19:30:54.241Z,24.47
2022-08-17T19:33:20.858Z,24.41
2022-08-17T19:36:00.894Z,24.35
2022-08-17T19:39:03.317Z,24.39
2022-08-17T19:41:54.772Z,24.34
2022-08-17T19:44:34.817Z,24.29
2022-08-17T19:47:54.223Z,24.24
2022-08-17T19:50:38.440Z,24.19
2022-08-17T19:53:41.706Z,24.09
2022-08-17T19:56:34.253Z,24.03
2022-08-17T19:59:03.442Z,24.02
2022-08-17T20:02:19.189Z,23.96
2022-08-17T20:04:49.032Z,23.91
2022-08-17T20:07:22.043Z,23.96
2022-08-17T20:10:04.786Z,23.87
2022-08-17T20:12:36.676Z,23.92
2022-08-17T20:15:16.912Z,24.05
2022-08-17T20:17:46.644Z,24.16
2022-08-17T20:20:30.407Z,24.24
2022-08-17T20:23:18.959Z,24.27
2022-08-17T20:26:15.915Z,24.31
2022-08-17T20:29:03.978Z,24.31
2022-08-17T20:31:39.528Z,24.29
2022-08-17T20:34:38.081Z,24.29
2022-08-17T20:37:09.427Z,24.23
2022-08-17T20:39:45.582Z,24.08
2022-08-17T20:42:21.018Z,23.96
2022-08-17T20:45:02.709Z,23.87
2022-08-17T20:47:55.131Z,23.93
2022-08-17T20:50:44.045Z,23.86
2022-08-17T20:53:15.164Z,23.92
2022-08-17T20:55:52.276Z,23.94
2022-08-17T20:58:21.088Z,23.90
2022-08-17T21:00:56.677Z,23.83
2022-08-17T21:03:23.526Z,23.79
2022-08-17T21:06:17.065Z,23.73
2022-08-17T21:08:53.785Z,23.65
2022-08-17T21:11:56.989Z,23.72
2022-08-17T21:14:31.393Z,23.76
2022-08-17T21:17:12.081Z,23.69
2022-08-17T21:20:11.455Z,23.77
2022-08-17T21:22:47.835Z,23.78
2022-08-17T21:25:52.829Z,23.76
2022-08-17T21:29:00.474Z,23.72
2022-08-17T21:31:33.199Z,23.71
2022-08-17T21:34:16.777Z,23.56
2022-08-17T21:36:44.550Z,23.50
2022-08-17T21:39:17.308Z,23.43
2022-08-17T21:41:54.398Z,23.51
2022-08-17T21:44:47.125Z,23.53
2022-08-17T21:47:13.840Z,23.49
2022-08-17T21:49:40.380Z,23.50
2022-08-17T21:52:07.551Z,23.46
2022-08-17T21:54:38.741Z,23.50
2022-08-17T21:57:15.584Z,23.42
2022-08-17T21:59:44.180Z,23.34
2022-08-17T22:02:51.861Z,23.33
2022-08-17T22:05:31.087Z,23.34
2022-08-17T22:08:03.924Z,23.36
2022-08-17T22:10:35.041Z,23.37
2022-08-17T22:13:23.169Z,23.34
2022-08-17T22:15:51.022Z,23.30
2022-08-17T22:18:25.085Z,23.35
2022-08-17T22:20:55.010Z,23.33
2022-08-17T22:23:41.677Z,23.28
2022-08-17T22:26:12.723Z,23.23
2022-08-17T22:28:54.444Z,23.19
2022-08-17T22:31:23.067Z,23.09
2022-08-17T22:34:02.786Z,23.03
2022-08-17T22:36:33.974Z,22.97
2022-08-17T22:39:22.994Z,22.91
2022-08-17T22:42:00.726Z,22.86
2022-08-17T22:44:29.423Z,22.82
2022-08-17T22:47:26.831Z,22.69
2022-08-17T22:49:58.352Z,22.55
2022-08-17T22:52:33.916Z,22.49
2022-08-17T22:55:23.727Z,22.39
2022-08-17T22:58:09.496Z,22.39
2022-08-17T23:00:41.980Z,22.45
2022-08-17T23:03:14.491Z,22.47
2022-08-17T23:05:44.878Z,22.42
2022-08-17T23:08:12.719Z,22.43
2022-08-17T23:10:41.625Z,22.32
2022-08-17T23:13:11.830Z,22.29
2022-08-17T23:15:40.426Z,22.22
2022-08-17T23:18:07.736Z,22.24
2022-08-17T23:20:36.464Z,22.30
2022-08-17T23:23:06.695Z,22.48
2022-08-17T23:25:35.150Z,22.49
2022-08-17T23:28:05.079Z,22.43
2022-08-17T23:30:35.404Z,22.40
2022-08-17T23:33:08.822Z,22.35
2022-08-17T23:35:39.889Z,22.36
2022-08-17T23:38:11.604Z,22.28
2022-08-17T23:40:39.653Z,22.22
2022-08-17T23:43:25.370Z,22.14
2022-08-17T23:45:55.284Z,22.06
2022-08-17T23:48:30.343Z,22.10
2022-08-17T23:51:09.771Z,22.22
2022-08-17T23:53:41.923Z,22.19
2022-08-17T23:56:11.202Z,22.14
2022-08-17T23:58:42.892Z,22.18
